createdAt,value
2022-07-29T00:01:06.652Z,61.50
2022-07-29T00:04:03.570Z,61.60
2022-07-29T00:07:00.432Z,59.90
2022-07-29T00:09:57.397Z,59.90
2022-07-29T00:12:54.263Z,61.30
2022-07-29T00:15:52.220Z,62.00
2022-07-29T00:18:49.109Z,61.40
2022-07-29T00:21:45.982Z,61.60
2022-07-29T00:24:43.024Z,62.60
2022-07-29T00:27:40.428Z,62.10
2022-07-29T00:30:37.275Z,62.20
2022-07-29T00:33:34.165Z,59.90
2022-07-29T00:36:30.993Z,62.60
2022-07-29T00:39:27.855Z,61.10
2022-07-29T00:42:25.758Z,62.80
2022-07-29T00:45:23.198Z,63.00
2022-07-29T00:48:20.131Z,62.10
2022-07-29T00:51:16.991Z,61.50
2022-07-29T00:54:14.163Z,58.80
2022-07-29T00:57:12.211Z,59.70
2022-07-29T01:00:13.975Z,61.20
2022-07-29T01:03:10.836Z,60.00
2022-07-29T01:06:07.766Z,60.50
2022-07-29T01:09:04.930Z,60.90
2022-07-29T01:12:02.924Z,62.50
2022-07-29T01:15:01.868Z,63.40
2022-07-29T01:18:22.213Z,63.30
2022-07-29T01:21:58.559Z,63.80
2022-07-29T01:25:33.909Z,60.90
2022-07-29T01:28:55.578Z,62.00
2022-07-29T01:32:28.051Z,60.30
2022-07-29T01:35:54.440Z,61.20
2022-07-29T01:39:08.161Z,61.00
2022-07-29T01:42:28.851Z,61.20
2022-07-29T01:45:42.816Z,60.10
2022-07-29T01:48:53.945Z,60.40
2022-07-29T01:51:58.469Z,62.30
2022-07-29T01:54:59.738Z,60.60
2022-07-29T01:57:58.589Z,62.10
2022-07-29T02:00:58.260Z,62.90
2022-07-29T02:03:58.179Z,58.10
2022-07-29T02:06:57.972Z,63.20
2022-07-29T02:09:56.835Z,64.60
2022-07-29T02:12:57.400Z,64.20
2022-07-29T02:15:56.916Z,62.70
2022-07-29T02:18:56.651Z,64.60
2022-07-29T02:21:55.751Z,64.70
2022-07-29T02:24:54.059Z,64.80
2022-07-29T02:27:52.336Z,63.00
2022-07-29T02:30:52.007Z,65.90
2022-07-29T02:33:50.712Z,64.60
2022-07-29T02:36:49.517Z,63.60
2022-07-29T02:39:49.769Z,64.00
2022-07-29T02:42:48.179Z,63.30
2022-07-29T02:45:48.270Z,65.60
2022-07-29T02:49:29.250Z,64.50
2022-07-29T02:52:35.793Z,63.40
2022-07-29T02:55:45.823Z,67.60
2022-07-29T02:58:50.517Z,65.60
2022-07-29T03:01:47.977Z,66.70
2022-07-29T03:04:47.032Z,68.50
2022-07-29T03:07:50.418Z,66.30
2022-07-29T03:10:48.552Z,66.50
2022-07-29T03:13:45.910Z,66.40
2022-07-29T03:16:43.184Z,66.40
2022-07-29T03:19:40.543Z,65.70
2022-07-29T03:22:47.943Z,69.00
2022-07-29T03:25:44.979Z,69.20
2022-07-29T03:28:41.968Z,69.40
2022-07-29T03:31:38.975Z,70.50
2022-07-29T03:34:40.501Z,67.90
2022-07-29T03:37:37.622Z,69.20
2022-07-29T03:40:50.763Z,71.10
2022-07-29T03:43:50.570Z,69.20
2022-07-29T03:46:49.668Z,69.70
2022-07-29T03:49:49.558Z,67.50
2022-07-29T03:52:47.659Z,67.00
2022-07-29T03:55:49.123Z,67.70
2022-07-29T03:58:46.222Z,67.40
2022-07-29T04:01:44.715Z,67.80
2022-07-29T04:04:41.782Z,69.60
2022-07-29T04:07:38.664Z,70.40
2022-07-29T04:10:36.065Z,69.30
2022-07-29T04:13:33.802Z,71.20
2022-07-29T04:16:30.827Z,71.50
2022-07-29T04:19:27.863Z,69.40
2022-07-29T04:22:24.707Z,68.90
2022-07-29T04:25:22.082Z,68.60
2022-07-29T04:28:18.909Z,69.90
2022-07-29T04:31:15.828Z,71.30
2022-07-29T04:34:14.012Z,71.90
2022-07-29T04:37:11.062Z,76.40
2022-07-29T04:40:08.617Z,70.70
2022-07-29T04:43:05.703Z,69.60
2022-07-29T04:46:04.778Z,82.60
2022-07-29T04:49:01.750Z,68.90
2022-07-29T04:51:58.982Z,67.60
2022-07-29T04:54:55.878Z,69.40
2022-07-29T04:57:52.702Z,69.60
2022-07-29T05:00:49.612Z,70.20
2022-07-29T05:03:46.609Z,69.50
2022-07-29T05:06:43.446Z,71.30
2022-07-29T05:09:40.300Z,70.80
2022-07-29T05:12:37.258Z,70.10
2022-07-29T05:15:36.026Z,72.80
2022-07-29T05:18:32.881Z,71.00
2022-07-29T05:21:29.728Z,71.10
2022-07-29T05:24:26.900Z,70.70
2022-07-29T05:27:23.750Z,71.10
2022-07-29T05:30:21.278Z,71.50
2022-07-29T05:33:35.975Z,70.30
2022-07-29T05:36:33.794Z,70.10
2022-07-29T05:39:46.587Z,71.10
2022-07-29T05:42:45.071Z,70.40
2022-07-29T05:45:49.963Z,70.90
2022-07-29T05:48:47.392Z,69.60
2022-07-29T05:51:44.280Z,71.90
2022-07-29T05:54:41.206Z,70.40
2022-07-29T05:57:38.048Z,68.40
2022-07-29T06:00:35.345Z,75.30
2022-07-29T06:03:32.213Z,73.50
2022-07-29T06:06:29.080Z,75.30
2022-07-29T06:09:26.909Z,73.10
2022-07-29T06:12:24.386Z,68.20
2022-07-29T06:15:21.259Z,70.40
2022-07-29T06:18:18.182Z,68.30
2022-07-29T06:21:15.104Z,70.70
2022-07-29T06:24:16.467Z,70.80
2022-07-29T06:27:13.591Z,92.50
2022-07-29T06:30:10.968Z,85.20
2022-07-29T06:33:08.059Z,85.50
2022-07-29T06:36:06.752Z,85.30
2022-07-29T06:39:08.420Z,78.20
2022-07-29T06:42:06.138Z,75.90
2022-07-29T06:45:08.994Z,77.90
2022-07-29T06:48:06.433Z,75.90
2022-07-29T06:51:05.346Z,75.20
2022-07-29T06:54:03.734Z,78.20
2022-07-29T06:57:00.804Z,66.90
2022-07-29T06:59:57.991Z,71.70
2022-07-29T07:02:54.896Z,68.10
2022-07-29T07:05:54.757Z,64.50
2022-07-29T07:08:51.600Z,67.40
2022-07-29T07:11:49.487Z,67.80
2022-07-29T07:14:47.027Z,64.70
2022-07-29T07:17:43.961Z,63.60
2022-07-29T07:20:40.993Z,62.90
2022-07-29T07:23:38.133Z,63.10
2022-07-29T07:26:34.975Z,61.90
2022-07-29T07:29:31.814Z,63.50
2022-07-29T07:32:28.668Z,60.70
2022-07-29T07:35:25.516Z,62.20
2022-07-29T07:38:22.365Z,65.30
2022-07-29T07:41:19.192Z,64.10
2022-07-29T07:44:16.357Z,60.80
2022-07-29T07:47:13.665Z,62.10
2022-07-29T07:50:18.493Z,62.40
2022-07-29T07:53:16.015Z,63.80
2022-07-29T07:56:13.220Z,62.00
2022-07-29T07:59:10.082Z,58.80
2022-07-29T08:02:10.259Z,61.50
2022-07-29T08:05:12.647Z,59.00
2022-07-29T08:08:09.850Z,59.30
2022-07-29T08:11:09.743Z,59.70
2022-07-29T08:14:06.876Z,61.20
2022-07-29T08:17:04.269Z,58.50
2022-07-29T08:20:01.083Z,60.30
2022-07-29T08:22:57.920Z,58.70
2022-07-29T08:25:54.988Z,58.20
2022-07-29T08:28:51.898Z,58.50
2022-07-29T08:31:48.840Z,58.30
2022-07-29T08:34:47.135Z,58.10
2022-07-29T08:37:43.979Z,58.60
2022-07-29T08:40:40.843Z,59.20
2022-07-29T08:43:39.098Z,57.10
2022-07-29T08:46:40.015Z,57.90
2022-07-29T08:49:37.091Z,56.70
2022-07-29T08:52:38.765Z,57.60
2022-07-29T08:55:35.915Z,61.70
2022-07-29T08:58:37.047Z,57.20
2022-07-29T09:01:42.915Z,59.50
2022-07-29T09:04:42.548Z,58.60
2022-07-29T09:07:40.907Z,57.90
2022-07-29T09:10:37.918Z,59.30
2022-07-29T09:13:35.415Z,54.80
2022-07-29T09:16:55.337Z,60.50
2022-07-29T09:19:53.334Z,57.40
2022-07-29T09:22:54.084Z,54.90
2022-07-29T09:25:50.975Z,56.30
2022-07-29T09:28:47.806Z,56.10
2022-07-29T09:31:50.741Z,56.20
2022-07-29T09:34:47.892Z,54.80
2022-07-29T09:37:45.827Z,55.50
2022-07-29T09:40:56.640Z,58.60
2022-07-29T09:43:57.875Z,56.90
2022-07-29T09:47:07.051Z,57.80
2022-07-29T09:50:04.436Z,56.40
2022-07-29T09:53:01.252Z,56.90
2022-07-29T09:55:58.327Z,55.20
2022-07-29T09:59:08.249Z,58.50
2022-07-29T10:02:17.724Z,60.00
2022-07-29T10:05:36.710Z,58.40
2022-07-29T10:08:33.852Z,58.20
2022-07-29T10:11:36.529Z,58.30
2022-07-29T10:14:46.281Z,58.00
2022-07-29T10:17:43.792Z,58.20
2022-07-29T10:20:41.396Z,58.30
2022-07-29T10:23:46.154Z,58.60
2022-07-29T10:26:45.647Z,58.60
2022-07-29T10:29:42.691Z,58.30
2022-07-29T10:33:19.273Z,58.90
2022-07-29T10:36:34.561Z,59.20
2022-07-29T10:40:01.823Z,60.80
2022-07-29T10:43:15.891Z,60.00
2022-07-29T10:46:14.455Z,60.70
2022-07-29T10:49:24.726Z,63.00
2022-07-29T10:52:26.637Z,63.10
2022-07-29T10:55:43.420Z,61.70
2022-07-29T10:58:41.083Z,60.90
2022-07-29T11:01:39.290Z,61.70
2022-07-29T11:04:45.258Z,64.30
2022-07-29T11:08:20.287Z,67.50
2022-07-29T11:11:22.242Z,68.80
2022-07-29T11:14:45.195Z,65.80
2022-07-29T11:18:05.299Z,70.20
2022-07-29T11:21:02.286Z,78.10
2022-07-29T11:24:28.857Z,76.10
2022-07-29T11:27:32.773Z,77.50
2022-07-29T11:30:56.064Z,75.50
2022-07-29T11:33:55.742Z,80.50
2022-07-29T11:37:10.040Z,83.00
2022-07-29T11:40:08.046Z,88.00
2022-07-29T11:43:07.220Z,86.10
2022-07-29T11:46:04.457Z,86.80
2022-07-29T11:49:03.257Z,83.50
2022-07-29T11:52:06.377Z,86.40
2022-07-29T11:55:09.671Z,88.90
2022-07-29T11:58:07.011Z,87.40
2022-07-29T12:01:05.072Z,85.90
2022-07-29T12:04:09.261Z,77.10
2022-07-29T12:10:11.653Z,78.60
2022-07-29T12:13:22.181Z,81.20
2022-07-29T12:16:25.375Z,78.00
2022-07-29T12:19:27.678Z,77.20
2022-07-29T12:22:38.139Z,67.80
2022-07-29T12:25:38.072Z,65.00
2022-07-29T12:28:39.562Z,59.70
2022-07-29T12:31:44.170Z,68.60
2022-07-29T12:34:42.416Z,66.10
2022-07-29T12:37:42.666Z,63.30
2022-07-29T12:40:39.725Z,61.20
2022-07-29T12:43:36.729Z,60.80
2022-07-29T12:46:33.833Z,63.10
2022-07-29T12:49:30.758Z,59.80
2022-07-29T12:52:35.756Z,57.50
2022-07-29T12:55:45.233Z,56.20
2022-07-29T13:01:42.339Z,57.50
2022-07-29T13:04:39.361Z,57.90
2022-07-29T13:07:54.559Z,57.00
2022-07-29T13:10:53.867Z,56.70
2022-07-29T13:14:03.092Z,57.80
2022-07-29T13:17:28.305Z,56.90
2022-07-29T13:20:31.037Z,58.50
2022-07-29T13:23:27.925Z,55.40
2022-07-29T13:26:24.782Z,55.20
2022-07-29T13:29:21.645Z,56.90
2022-07-29T13:32:28.258Z,58.20
2022-07-29T13:35:25.859Z,57.10
2022-07-29T13:38:22.726Z,58.30
2022-07-29T13:41:28.097Z,58.60
2022-07-29T13:44:25.487Z,57.10
2022-07-29T13:47:32.680Z,58.30
2022-07-29T13:50:30.213Z,58.20
2022-07-29T13:53:28.774Z,57.00
2022-07-29T13:56:25.651Z,59.40
2022-07-29T13:59:22.531Z,59.70
2022-07-29T14:02:19.520Z,58.70
2022-07-29T14:05:16.492Z,59.10
2022-07-29T14:08:13.353Z,57.60
2022-07-29T14:11:13.309Z,58.40
2022-07-29T14:14:11.269Z,59.70
2022-07-29T14:17:10.854Z,56.70
2022-07-29T14:20:08.181Z,55.40
2022-07-29T14:23:05.030Z,55.00
2022-07-29T14:26:02.282Z,55.30
2022-07-29T14:28:59.510Z,56.20
2022-07-29T14:31:56.681Z,56.20
2022-07-29T14:34:53.708Z,56.20
2022-07-29T14:37:50.781Z,57.80
2022-07-29T14:40:47.753Z,56.40
2022-07-29T14:43:47.729Z,56.20
2022-07-29T14:46:44.887Z,54.60
2022-07-29T14:49:45.364Z,54.70
2022-07-29T14:52:42.266Z,53.90
2022-07-29T14:55:40.352Z,53.00
2022-07-29T14:58:37.338Z,54.40
2022-07-29T15:01:45.899Z,53.60
2022-07-29T15:04:42.721Z,54.70
2022-07-29T15:07:39.643Z,54.70
2022-07-29T15:10:36.509Z,55.20
2022-07-29T15:13:34.724Z,55.10
2022-07-29T15:16:31.627Z,57.30
2022-07-29T15:19:28.927Z,55.70
2022-07-29T15:22:26.031Z,55.30
2022-07-29T15:25:24.553Z,55.20
2022-07-29T15:28:22.587Z,55.60
2022-07-29T15:31:22.221Z,54.40
2022-07-29T15:34:21.389Z,54.10
2022-07-29T15:37:18.494Z,55.30
2022-07-29T15:40:15.682Z,56.10
2022-07-29T15:43:12.891Z,51.70
2022-07-29T15:46:31.705Z,54.20
2022-07-29T15:49:47.607Z,53.80
2022-07-29T15:52:47.009Z,53.90
2022-07-29T15:55:44.560Z,54.00
2022-07-29T15:58:41.578Z,54.20
2022-07-29T16:01:38.554Z,52.70
2022-07-29T16:04:39.694Z,52.90
2022-07-29T16:07:37.786Z,53.10
2022-07-29T16:10:34.871Z,53.20
2022-07-29T16:13:32.137Z,53.40
2022-07-29T16:16:29.047Z,53.80
2022-07-29T16:19:25.915Z,54.80
2022-07-29T16:22:22.755Z,54.00
2022-07-29T16:25:19.651Z,55.00
2022-07-29T16:28:17.205Z,55.70
2022-07-29T16:31:14.734Z,54.90
2022-07-29T16:34:11.585Z,56.00
2022-07-29T16:37:08.435Z,56.80
2022-07-29T16:40:11.406Z,58.00
2022-07-29T16:43:08.831Z,57.80
2022-07-29T16:46:09.436Z,57.90
2022-07-29T16:49:10.950Z,59.30
2022-07-29T16:52:08.034Z,59.90
2022-07-29T16:55:05.794Z,60.50
2022-07-29T16:58:03.223Z,64.30
2022-07-29T17:01:00.551Z,68.70
2022-07-29T17:04:06.421Z,68.60
2022-07-29T17:07:03.516Z,67.90
2022-07-29T17:10:03.988Z,69.80
2022-07-29T17:13:01.119Z,67.70
2022-07-29T17:16:00.661Z,71.80
2022-07-29T17:18:57.888Z,75.20
2022-07-29T17:22:03.313Z,70.40
2022-07-29T17:25:04.737Z,81.80
2022-07-29T17:28:01.714Z,92.40
2022-07-29T17:30:58.623Z,93.80
2022-07-29T17:33:59.821Z,99.40
2022-07-29T17:36:57.510Z,99.90
2022-07-29T17:39:58.626Z,99.90
2022-07-29T17:42:57.339Z,99.90
2022-07-29T17:45:56.863Z,99.90
2022-07-29T17:48:57.422Z,99.90
2022-07-29T17:51:57.653Z,99.90
2022-07-29T17:54:57.553Z,99.90
2022-07-29T17:57:58.360Z,99.90
2022-07-29T18:00:56.983Z,99.90
2022-07-29T18:03:57.197Z,99.90
2022-07-29T18:06:56.868Z,99.90
2022-07-29T18:09:56.363Z,99.90
2022-07-29T18:12:56.958Z,99.90
2022-07-29T18:15:58.696Z,99.90
2022-07-29T18:18:57.080Z,99.90
2022-07-29T18:21:55.211Z,99.90
2022-07-29T18:24:53.468Z,99.90
2022-07-29T18:27:50.718Z,99.90
2022-07-29T18:30:48.096Z,99.90
2022-07-29T18:33:44.929Z,99.90
2022-07-29T18:36:41.771Z,99.90
2022-07-29T18:39:38.611Z,99.90
2022-07-29T18:42:35.498Z,99.90
2022-07-29T18:45:32.795Z,99.90
2022-07-29T18:48:31.523Z,99.90
2022-07-29T18:51:28.442Z,99.90
2022-07-29T18:54:25.348Z,99.90
2022-07-29T18:57:55.368Z,99.90
2022-07-29T19:00:39.131Z,99.90
2022-07-29T19:03:35.984Z,99.90
2022-07-29T19:06:32.878Z,99.90
2022-07-29T19:09:30.141Z,99.90
2022-07-29T19:12:27.310Z,99.90
2022-07-29T19:15:24.246Z,99.90
2022-07-29T19:18:21.071Z,99.90
2022-07-29T19:21:17.995Z,99.90
2022-07-29T19:24:15.772Z,99.90
2022-07-29T19:27:12.998Z,99.90
2022-07-29T19:30:10.383Z,99.90
2022-07-29T19:33:07.340Z,99.90
2022-07-29T19:36:04.456Z,99.90
2022-07-29T19:39:01.289Z,99.90
2022-07-29T19:42:02.919Z,99.90
2022-07-29T19:45:00.267Z,99.90
2022-07-29T19:48:01.272Z,99.90
2022-07-29T19:50:58.685Z,99.90
2022-07-29T19:53:55.512Z,99.90
2022-07-29T19:56:52.434Z,99.90
2022-07-29T19:59:49.397Z,99.90
2022-07-29T20:02:46.689Z,99.90
2022-07-29T20:05:43.714Z,99.90
2022-07-29T20:08:45.364Z,99.90
2022-07-29T20:11:42.201Z,99.90
2022-07-29T20:14:39.117Z,99.90
2022-07-29T20:17:39.421Z,99.90
2022-07-29T20:20:36.911Z,99.90
2022-07-29T20:23:33.818Z,99.90
2022-07-29T20:26:31.192Z,99.90
2022-07-29T20:29:28.036Z,99.90
2022-07-29T20:32:24.867Z,99.90
2022-07-29T20:35:22.437Z,99.90
2022-07-29T20:38:19.318Z,99.90
2022-07-29T20:41:16.167Z,99.90
2022-07-29T20:44:14.916Z,99.90
2022-07-29T20:47:11.874Z,99.90
2022-07-29T20:50:10.078Z,99.90
2022-07-29T20:53:06.923Z,99.90
2022-07-29T20:56:04.053Z,99.90
2022-07-29T20:59:00.984Z,99.90
2022-07-29T21:01:57.937Z,99.90
2022-07-29T21:04:54.810Z,99.90
2022-07-29T21:07:54.368Z,99.90
2022-07-29T21:10:54.726Z,99.90
2022-07-29T21:13:51.903Z,99.90
2022-07-29T21:16:50.181Z,99.90
2022-07-29T21:19:47.226Z,99.90
2022-07-29T21:22:45.040Z,99.90
2022-07-29T21:25:41.881Z,99.90
2022-07-29T21:28:40.569Z,99.90
2022-07-29T21:31:37.391Z,99.90
2022-07-29T21:34:34.275Z,99.90
2022-07-29T21:37:31.230Z,99.90
2022-07-29T21:40:28.136Z,99.90
2022-07-29T21:43:26.653Z,99.90
2022-07-29T21:46:24.443Z,99.90
2022-07-29T21:49:21.534Z,99.90
2022-07-29T21:52:18.602Z,99.90
2022-07-29T21:55:15.487Z,99.90
2022-07-29T21:58:15.567Z,99.90
2022-07-29T22:01:12.446Z,99.90
2022-07-29T22:04:09.340Z,99.90
2022-07-29T22:07:06.203Z,99.90
2022-07-29T22:10:03.581Z,99.90
2022-07-29T22:13:01.746Z,99.90
2022-07-29T22:15:58.562Z,99.90
2022-07-29T22:18:55.391Z,99.90
2022-07-29T22:21:52.206Z,99.90
2022-07-29T22:24:49.075Z,99.90
2022-07-29T22:27:45.996Z,99.90
2022-07-29T22:30:42.881Z,99.90
2022-07-29T22:33:39.788Z,99.90
2022-07-29T22:36:36.627Z,99.90
2022-07-29T22:39:33.466Z,99.90
2022-07-29T22:42:30.426Z,99.90
2022-07-29T22:45:27.238Z,99.90
2022-07-29T22:48:24.070Z,99.90
2022-07-29T22:51:21.017Z,99.90
2022-07-29T22:54:18.072Z,99.90
2022-07-29T22:57:14.901Z,99.90
2022-07-29T23:00:13.499Z,99.90
2022-07-29T23:03:10.338Z,99.90
2022-07-29T23:06:07.399Z,99.90
2022-07-29T23:09:04.500Z,99.90
2022-07-29T23:12:01.428Z,99.90
2022-07-29T23:14:58.290Z,99.90
2022-07-29T23:17:55.204Z,99.90
2022-07-29T23:20:52.074Z,99.90
2022-07-29T23:23:49.458Z,99.90
2022-07-29T23:26:46.318Z,99.90
2022-07-29T23:29:43.129Z,99.90
2022-07-29T23:32:39.996Z,99.90
2022-07-29T23:35:36.820Z,99.90
2022-07-29T23:38:33.676Z,99.90
2022-07-29T23:41:31.428Z,99.90
2022-07-29T23:44:28.300Z,99.90
2022-07-29T23:47:25.147Z,99.90
2022-07-29T23:50:21.984Z,99.90
2022-07-29T23:53:18.838Z,99.90
2022-07-29T23:56:15.741Z,99.90
2022-07-29T23:59:12.585Z,99.90
